createdAt,value
2023-03-15T00:01:38.747Z,109.17
2023-03-15T00:04:06.796Z,109.00
2023-03-15T00:06:35.554Z,111.13
2023-03-15T00:09:03.980Z,102.40
2023-03-15T00:11:31.944Z,96.83
2023-03-15T00:14:01.845Z,104.57
2023-03-15T00:16:32.792Z,102.57
2023-03-15T00:19:00.616Z,103.10
2023-03-15T00:21:29.764Z,109.47
2023-03-15T00:23:57.707Z,102.80
2023-03-15T00:26:25.494Z,94.93
2023-03-15T00:28:53.128Z,98.83
2023-03-15T00:31:23.314Z,107.83
2023-03-15T00:33:54.692Z,91.97
2023-03-15T00:36:25.128Z,94.57
2023-03-15T00:38:54.667Z,87.10
2023-03-15T00:41:23.337Z,90.50
2023-03-15T00:43:52.008Z,95.33
2023-03-15T00:46:20.739Z,94.67
2023-03-15T00:48:50.029Z,84.13
2023-03-15T00:51:21.275Z,85.87
2023-03-15T00:53:50.566Z,82.33
2023-03-15T00:56:20.541Z,85.87
2023-03-15T00:58:48.355Z,82.37
2023-03-15T01:01:19.219Z,84.90
2023-03-15T01:03:46.952Z,85.10
2023-03-15T01:06:16.665Z,85.27
2023-03-15T01:08:46.659Z,88.73
2023-03-15T01:11:16.586Z,85.73
2023-03-15T01:13:45.333Z,82.37
2023-03-15T01:16:14.752Z,85.73
2023-03-15T01:18:45.152Z,83.67
2023-03-15T01:21:14.876Z,86.60
2023-03-15T01:23:43.063Z,83.10
2023-03-15T01:26:14.191Z,77.67
2023-03-15T01:28:42.133Z,84.47
2023-03-15T01:31:18.060Z,76.00
2023-03-15T01:33:45.806Z,78.73
2023-03-15T01:36:14.221Z,78.53
2023-03-15T01:38:42.988Z,74.97
2023-03-15T01:41:13.833Z,82.63
2023-03-15T01:43:47.024Z,80.83
2023-03-15T01:46:24.736Z,82.10
2023-03-15T01:49:00.687Z,71.30
2023-03-15T01:51:38.469Z,75.23
2023-03-15T01:54:10.185Z,76.20
2023-03-15T01:56:42.869Z,76.90
2023-03-15T01:59:14.084Z,81.77
2023-03-15T02:01:45.538Z,73.13
2023-03-15T02:04:17.657Z,73.80
2023-03-15T02:06:48.908Z,77.13
2023-03-15T02:09:19.234Z,71.00
2023-03-15T02:11:49.698Z,70.40
2023-03-15T02:14:19.388Z,75.10
2023-03-15T02:16:47.066Z,78.60
2023-03-15T02:19:28.914Z,75.63
2023-03-15T02:22:03.718Z,71.67
2023-03-15T02:24:38.712Z,74.60
2023-03-15T02:27:08.994Z,74.47
2023-03-15T02:29:38.116Z,75.47
2023-03-15T02:32:06.141Z,72.10
2023-03-15T02:34:33.896Z,71.73
2023-03-15T02:37:02.240Z,73.20
2023-03-15T02:39:29.896Z,69.27
2023-03-15T02:41:59.683Z,75.10
2023-03-15T02:44:32.809Z,67.10
2023-03-15T02:47:05.335Z,76.57
2023-03-15T02:49:38.709Z,66.30
2023-03-15T02:52:08.455Z,69.83
2023-03-15T02:54:36.591Z,64.23
2023-03-15T02:57:04.697Z,76.87
2023-03-15T02:59:33.051Z,67.87
2023-03-15T03:02:02.886Z,68.47
2023-03-15T03:04:30.629Z,68.30
2023-03-15T03:06:58.510Z,72.17
2023-03-15T03:09:33.704Z,67.57
2023-03-15T03:12:01.531Z,63.20
2023-03-15T03:14:31.201Z,59.60
2023-03-15T03:16:59.371Z,63.17
2023-03-15T03:19:28.477Z,65.80
2023-03-15T03:21:57.417Z,62.13
2023-03-15T03:24:25.778Z,54.00
2023-03-15T03:26:57.765Z,64.30
2023-03-15T03:29:30.028Z,65.00
2023-03-15T03:32:01.402Z,70.30
2023-03-15T03:34:31.348Z,65.87
2023-03-15T03:36:59.928Z,72.97
2023-03-15T03:39:44.645Z,67.03
2023-03-15T03:42:12.709Z,66.07
2023-03-15T03:44:40.366Z,71.63
2023-03-15T03:47:08.842Z,75.17
2023-03-15T03:49:37.951Z,72.43
2023-03-15T03:52:06.150Z,77.77
2023-03-15T03:54:34.164Z,81.30
2023-03-15T03:57:01.803Z,72.67
2023-03-15T03:59:33.642Z,79.70
2023-03-15T04:05:02.348Z,72.37
2023-03-15T04:07:30.089Z,74.83
2023-03-15T04:09:57.829Z,71.77
2023-03-15T04:12:25.543Z,80.87
2023-03-15T04:14:55.712Z,79.10
2023-03-15T04:17:25.893Z,66.63
2023-03-15T04:19:53.653Z,69.67
2023-03-15T04:22:28.253Z,70.60
2023-03-15T04:25:04.756Z,68.63
2023-03-15T04:28:02.681Z,69.10
2023-03-15T04:30:58.603Z,65.93
2023-03-15T04:33:49.319Z,61.90
2023-03-15T04:36:35.800Z,63.23
2023-03-15T04:39:07.170Z,69.00
2023-03-15T04:41:47.775Z,67.67
2023-03-15T04:44:44.923Z,60.23
2023-03-15T04:47:45.030Z,65.87
2023-03-15T04:50:40.721Z,61.20
2023-03-15T04:53:16.690Z,66.93
2023-03-15T04:56:08.906Z,61.57
2023-03-15T04:58:55.444Z,65.30
2023-03-15T05:01:46.064Z,67.07
2023-03-15T05:04:38.465Z,64.73
2023-03-15T05:07:25.376Z,61.70
2023-03-15T05:10:23.826Z,63.50
2023-03-15T05:13:13.050Z,62.57
2023-03-15T05:16:01.422Z,61.07
2023-03-15T05:18:47.709Z,64.80
2023-03-15T05:21:32.634Z,63.77
2023-03-15T05:24:14.383Z,60.93
2023-03-15T05:27:11.968Z,59.07
2023-03-15T05:29:53.500Z,66.27
2023-03-15T05:32:39.497Z,69.07
2023-03-15T05:35:22.175Z,69.20
2023-03-15T05:38:28.085Z,65.83
2023-03-15T05:41:18.118Z,65.27
2023-03-15T05:43:54.588Z,66.80
2023-03-15T05:46:35.524Z,69.40
2023-03-15T05:49:25.675Z,65.67
2023-03-15T05:52:12.040Z,58.60
2023-03-15T05:54:50.730Z,64.77
2023-03-15T05:57:53.802Z,66.93
2023-03-15T06:00:40.463Z,65.10
2023-03-15T06:03:20.216Z,67.80
2023-03-15T06:06:05.031Z,72.50
2023-03-15T06:08:37.977Z,65.27
2023-03-15T06:11:06.665Z,69.83
2023-03-15T06:13:34.787Z,70.40
2023-03-15T06:16:08.065Z,71.13
2023-03-15T06:18:40.345Z,67.37
2023-03-15T06:21:08.145Z,77.97
2023-03-15T06:23:36.870Z,68.70
2023-03-15T06:26:05.440Z,72.60
2023-03-15T06:28:33.375Z,75.63
2023-03-15T06:31:07.765Z,70.93
2023-03-15T06:33:41.599Z,65.93
2023-03-15T06:36:12.592Z,67.37
2023-03-15T06:38:41.725Z,75.57
2023-03-15T06:41:09.418Z,69.57
2023-03-15T06:43:38.163Z,73.63
2023-03-15T06:46:06.917Z,74.27
2023-03-15T06:48:34.670Z,72.70
2023-03-15T06:51:05.801Z,68.40
2023-03-15T06:53:33.655Z,68.13
2023-03-15T06:56:01.404Z,74.20
2023-03-15T06:58:28.996Z,73.40
2023-03-15T07:00:56.796Z,70.80
2023-03-15T07:03:24.490Z,76.00
2023-03-15T07:05:53.926Z,64.30
2023-03-15T07:08:24.629Z,68.63
2023-03-15T07:10:53.050Z,67.17
2023-03-15T07:13:20.994Z,64.03
2023-03-15T07:15:53.028Z,65.60
2023-03-15T07:18:20.780Z,70.83
2023-03-15T07:20:48.409Z,62.47
2023-03-15T07:23:16.074Z,67.17
2023-03-15T07:25:54.848Z,64.20
2023-03-15T07:28:24.921Z,68.53
2023-03-15T07:30:57.262Z,68.90
2023-03-15T07:33:26.538Z,73.93
2023-03-15T07:35:54.898Z,69.00
2023-03-15T07:38:23.201Z,66.60
2023-03-15T07:40:52.289Z,69.00
2023-03-15T07:43:20.537Z,69.70
2023-03-15T07:45:51.842Z,67.63
2023-03-15T07:48:19.492Z,64.53
2023-03-15T07:50:47.993Z,77.80
2023-03-15T07:53:15.820Z,67.70
2023-03-15T07:55:43.570Z,71.87
2023-03-15T07:58:13.385Z,70.00
2023-03-15T08:00:41.067Z,75.30
2023-03-15T08:03:09.214Z,74.27
2023-03-15T08:05:37.365Z,73.97
2023-03-15T08:08:05.541Z,73.70
2023-03-15T08:10:33.292Z,77.30
2023-03-15T08:13:00.929Z,63.70
2023-03-15T08:15:29.908Z,77.90
2023-03-15T08:17:59.615Z,76.83
2023-03-15T08:20:29.685Z,82.67
2023-03-15T08:22:57.735Z,87.00
2023-03-15T08:25:26.938Z,87.07
2023-03-15T08:27:54.569Z,79.37
2023-03-15T08:30:22.620Z,87.50
2023-03-15T08:32:52.567Z,84.03
2023-03-15T08:35:22.434Z,86.30
2023-03-15T08:37:52.463Z,89.40
2023-03-15T08:40:24.738Z,85.03
2023-03-15T08:42:53.032Z,80.57
2023-03-15T08:45:21.637Z,83.93
2023-03-15T08:47:50.614Z,86.10
2023-03-15T08:50:19.111Z,84.70
2023-03-15T08:52:46.782Z,83.33
2023-03-15T08:55:14.674Z,92.63
2023-03-15T08:57:42.945Z,91.07
2023-03-15T09:00:16.143Z,81.43
2023-03-15T09:02:43.960Z,85.57
2023-03-15T09:05:12.929Z,86.97
2023-03-15T09:07:42.697Z,86.07
2023-03-15T09:10:13.187Z,81.50
2023-03-15T09:12:40.893Z,83.00
2023-03-15T09:15:09.800Z,88.47
2023-03-15T09:17:37.465Z,86.50
2023-03-15T09:20:11.270Z,93.03
2023-03-15T09:22:40.534Z,82.77
2023-03-15T09:25:09.698Z,81.10
2023-03-15T09:27:37.907Z,83.67
2023-03-15T09:30:06.458Z,81.63
2023-03-15T09:32:36.294Z,86.10
2023-03-15T09:35:05.308Z,90.17
2023-03-15T09:37:33.431Z,85.00
2023-03-15T09:40:04.489Z,79.10
2023-03-15T09:42:42.814Z,85.67
2023-03-15T09:45:19.398Z,78.67
2023-03-15T09:47:56.817Z,81.17
2023-03-15T09:50:30.592Z,77.13
2023-03-15T09:53:03.459Z,79.67
2023-03-15T09:55:32.482Z,82.30
2023-03-15T09:58:01.986Z,83.60
2023-03-15T10:00:38.628Z,82.47
2023-03-15T10:03:09.826Z,85.67
2023-03-15T10:05:42.264Z,81.03
2023-03-15T10:08:12.482Z,79.50
2023-03-15T10:10:50.411Z,84.37
2023-03-15T10:13:29.493Z,84.10
2023-03-15T10:16:03.636Z,75.83
2023-03-15T10:18:49.802Z,78.23
2023-03-15T10:21:30.590Z,75.20
2023-03-15T10:23:59.474Z,76.80
2023-03-15T10:26:34.053Z,81.33
2023-03-15T10:29:04.972Z,79.30
2023-03-15T10:31:44.427Z,82.27
2023-03-15T10:34:14.060Z,83.30
2023-03-15T10:36:46.432Z,78.27
2023-03-15T10:39:14.238Z,90.63
2023-03-15T10:41:44.941Z,90.70
2023-03-15T10:44:15.187Z,92.57
2023-03-15T10:46:43.018Z,88.27
2023-03-15T10:49:13.250Z,91.97
2023-03-15T10:51:43.572Z,95.90
2023-03-15T10:54:17.587Z,96.33
2023-03-15T10:56:48.728Z,94.27
2023-03-15T10:59:18.447Z,91.30
2023-03-15T11:01:49.415Z,99.37
2023-03-15T11:04:21.333Z,91.23
2023-03-15T11:06:51.393Z,96.33
2023-03-15T11:09:22.190Z,101.90
2023-03-15T11:11:54.161Z,103.37
2023-03-15T11:14:21.799Z,95.20
2023-03-15T11:16:51.982Z,105.20
2023-03-15T11:19:22.973Z,108.57
2023-03-15T11:21:52.447Z,97.97
2023-03-15T11:24:26.667Z,109.23
2023-03-15T11:27:01.918Z,107.83
2023-03-15T11:29:32.592Z,112.83
2023-03-15T11:32:02.345Z,111.87
2023-03-15T11:34:41.313Z,118.60
2023-03-15T11:37:16.808Z,119.10
2023-03-15T11:39:53.734Z,113.10
2023-03-15T11:42:31.405Z,114.67
2023-03-15T11:45:02.828Z,126.07
2023-03-15T11:47:40.551Z,124.70
2023-03-15T11:50:12.710Z,136.80
2023-03-15T11:52:41.233Z,133.57
2023-03-15T11:55:18.780Z,148.33
2023-03-15T11:57:49.307Z,138.63
2023-03-15T12:00:50.719Z,141.73
2023-03-15T12:03:34.256Z,134.57
2023-03-15T12:06:11.599Z,137.77
2023-03-15T12:08:45.508Z,141.57
2023-03-15T12:11:13.943Z,147.90
2023-03-15T12:14:04.104Z,153.80
2023-03-15T12:16:34.695Z,140.10
2023-03-15T12:19:10.100Z,144.77
2023-03-15T12:21:42.454Z,140.43
2023-03-15T12:24:18.328Z,159.30
2023-03-15T12:26:47.629Z,162.87
2023-03-15T12:29:21.596Z,153.93
2023-03-15T12:31:55.688Z,153.17
2023-03-15T12:34:27.379Z,160.83
2023-03-15T12:36:59.258Z,153.77
2023-03-15T12:39:39.883Z,140.50
2023-03-15T12:42:13.818Z,144.40
2023-03-15T12:44:44.284Z,144.87
2023-03-15T12:47:12.786Z,151.87
2023-03-15T12:49:43.611Z,151.57
2023-03-15T12:52:35.753Z,156.57
2023-03-15T12:55:12.845Z,159.60
2023-03-15T12:57:48.520Z,160.40
2023-03-15T13:00:21.795Z,151.60
2023-03-15T13:02:51.677Z,152.10
2023-03-15T13:05:24.442Z,159.70
2023-03-15T13:07:58.393Z,159.10
2023-03-15T13:10:39.436Z,162.43
2023-03-15T13:13:44.968Z,157.50
2023-03-15T13:16:26.661Z,160.10
2023-03-15T13:19:05.246Z,148.07
2023-03-15T13:21:35.441Z,154.37
2023-03-15T13:24:04.528Z,165.57
2023-03-15T13:26:46.116Z,160.73
2023-03-15T13:29:17.535Z,156.57
2023-03-15T13:31:47.655Z,165.97
2023-03-15T13:34:19.562Z,164.43
2023-03-15T13:36:49.195Z,150.50
2023-03-15T13:39:20.561Z,166.13
2023-03-15T13:41:48.315Z,161.83
2023-03-15T13:44:20.696Z,174.57
2023-03-15T13:46:52.878Z,158.03
2023-03-15T13:49:21.649Z,148.13
2023-03-15T13:51:50.680Z,161.73
2023-03-15T13:54:21.998Z,158.53
2023-03-15T13:57:03.521Z,163.57
2023-03-15T13:59:35.778Z,167.77
2023-03-15T14:02:06.940Z,189.07
2023-03-15T14:04:38.475Z,211.70
2023-03-15T14:07:27.297Z,216.47
2023-03-15T14:10:24.830Z,194.63
2023-03-15T14:12:53.646Z,183.87
2023-03-15T14:15:24.822Z,193.20
2023-03-15T14:18:00.781Z,187.40
2023-03-15T14:20:33.497Z,184.03
2023-03-15T14:23:02.916Z,176.13
2023-03-15T14:25:34.803Z,169.93
2023-03-15T14:28:03.377Z,172.17
2023-03-15T14:30:34.088Z,174.40
2023-03-15T14:33:07.433Z,162.97
2023-03-15T14:35:44.094Z,164.00
2023-03-15T14:38:18.957Z,153.33
2023-03-15T14:40:46.825Z,164.57
2023-03-15T14:43:14.945Z,157.17
2023-03-15T14:45:44.717Z,166.30
2023-03-15T14:48:16.365Z,158.17
2023-03-15T14:50:46.658Z,161.53
2023-03-15T14:53:18.581Z,153.03
2023-03-15T14:55:46.341Z,149.20
2023-03-15T14:58:17.202Z,173.53
2023-03-15T15:00:46.987Z,167.10
2023-03-15T15:03:19.778Z,170.33
2023-03-15T15:05:47.701Z,164.73
2023-03-15T15:08:19.177Z,164.90
2023-03-15T15:10:48.712Z,161.80
2023-03-15T15:13:20.389Z,167.43
2023-03-15T15:15:55.761Z,161.93
2023-03-15T15:18:27.789Z,158.60
2023-03-15T15:20:57.375Z,168.20
2023-03-15T15:23:28.219Z,163.37
2023-03-15T15:25:58.837Z,164.90
2023-03-15T15:28:35.210Z,168.13
2023-03-15T15:31:05.894Z,185.83
2023-03-15T15:33:35.159Z,171.53
2023-03-15T15:36:04.353Z,190.03
2023-03-15T15:38:38.538Z,182.97
2023-03-15T15:41:07.636Z,207.60
2023-03-15T15:43:35.220Z,211.10
2023-03-15T15:46:03.370Z,209.47
2023-03-15T15:48:31.133Z,193.63
2023-03-15T15:51:00.084Z,202.03
2023-03-15T15:53:32.659Z,211.23
2023-03-15T15:56:00.808Z,215.53
2023-03-15T15:58:28.468Z,194.50
2023-03-15T16:00:56.073Z,213.97
2023-03-15T16:03:23.963Z,191.27
2023-03-15T16:05:52.851Z,184.03
2023-03-15T16:08:23.952Z,182.40
2023-03-15T16:10:52.000Z,177.40
2023-03-15T16:13:19.624Z,184.70
2023-03-15T16:15:47.263Z,187.83
2023-03-15T16:18:15.433Z,183.33
2023-03-15T16:20:43.802Z,171.80
2023-03-15T16:23:18.937Z,176.80
2023-03-15T16:25:50.760Z,191.03
2023-03-15T16:28:18.523Z,175.93
2023-03-15T16:30:47.110Z,181.73
2023-03-15T16:33:17.011Z,164.77
2023-03-15T16:35:45.520Z,158.83
2023-03-15T16:38:16.828Z,159.43
2023-03-15T16:40:46.664Z,161.67
2023-03-15T16:43:15.723Z,145.87
2023-03-15T16:45:43.625Z,157.77
2023-03-15T16:48:11.946Z,152.53
2023-03-15T16:50:40.826Z,187.53
2023-03-15T16:53:11.067Z,166.67
2023-03-15T16:55:39.544Z,173.90
2023-03-15T16:58:17.368Z,186.93
2023-03-15T17:00:47.018Z,172.93
2023-03-15T17:03:16.434Z,173.73
2023-03-15T17:05:46.653Z,177.90
2023-03-15T17:08:18.338Z,167.60
2023-03-15T17:10:46.385Z,175.67
2023-03-15T17:13:18.065Z,164.70
2023-03-15T17:15:46.008Z,176.17
2023-03-15T17:18:17.307Z,163.77
2023-03-15T17:20:46.210Z,163.00
2023-03-15T17:23:14.039Z,155.50
2023-03-15T17:25:42.182Z,166.17
2023-03-15T17:28:09.848Z,157.83
2023-03-15T17:30:39.053Z,147.13
2023-03-15T17:33:07.112Z,137.77
2023-03-15T17:35:36.793Z,138.57
2023-03-15T17:38:06.215Z,128.57
2023-03-15T17:40:36.331Z,130.43
2023-03-15T17:43:05.136Z,123.43
2023-03-15T17:45:34.246Z,108.43
2023-03-15T17:48:04.228Z,110.83
2023-03-15T17:50:33.451Z,104.00
2023-03-15T17:53:03.112Z,101.50
2023-03-15T17:55:34.710Z,99.20
2023-03-15T17:58:02.667Z,112.17
2023-03-15T18:00:32.555Z,98.07
2023-03-15T18:03:01.294Z,86.97
2023-03-15T18:05:30.789Z,92.87
2023-03-15T18:07:59.833Z,101.17
2023-03-15T18:10:32.564Z,95.27
2023-03-15T18:13:00.234Z,83.80
2023-03-15T18:15:27.836Z,85.40
2023-03-15T18:17:55.472Z,90.20
2023-03-15T18:20:24.078Z,86.50
2023-03-15T18:22:53.194Z,81.13
2023-03-15T18:25:23.252Z,87.27
2023-03-15T18:27:51.444Z,82.47
2023-03-15T18:30:21.137Z,73.60
2023-03-15T18:32:49.381Z,77.90
2023-03-15T18:35:20.160Z,81.87
2023-03-15T18:37:48.043Z,83.13
2023-03-15T18:40:19.428Z,74.43
2023-03-15T18:42:47.128Z,68.97
2023-03-15T18:45:18.941Z,72.37
2023-03-15T18:47:47.032Z,71.80
2023-03-15T18:50:15.288Z,69.87
2023-03-15T18:52:43.552Z,76.80
2023-03-15T18:55:13.309Z,66.23
2023-03-15T18:57:42.952Z,72.63
2023-03-15T19:00:13.168Z,69.93
2023-03-15T19:02:42.021Z,69.37
2023-03-15T19:05:11.627Z,72.37
2023-03-15T19:07:39.848Z,67.93
2023-03-15T19:10:10.543Z,70.13
2023-03-15T19:12:39.770Z,71.50
2023-03-15T19:15:11.711Z,65.97
2023-03-15T19:17:39.911Z,72.77
2023-03-15T19:20:11.860Z,72.90
2023-03-15T19:22:39.888Z,75.43
2023-03-15T19:25:08.777Z,66.67
2023-03-15T19:27:36.506Z,76.30
2023-03-15T19:30:07.901Z,72.87
2023-03-15T19:32:38.033Z,71.43
2023-03-15T19:35:06.644Z,70.13
2023-03-15T19:37:34.344Z,68.77
2023-03-15T19:40:02.757Z,68.77
2023-03-15T19:42:30.413Z,76.00
2023-03-15T19:44:58.034Z,66.63
2023-03-15T19:47:25.699Z,72.60
2023-03-15T19:49:54.865Z,72.70
2023-03-15T19:52:22.581Z,70.50
2023-03-15T19:54:51.685Z,77.27
2023-03-15T19:57:19.525Z,68.07
2023-03-15T19:59:47.293Z,66.93
2023-03-15T20:02:15.246Z,69.03
2023-03-15T20:04:42.977Z,73.17
2023-03-15T20:07:12.369Z,75.90
2023-03-15T20:09:41.320Z,68.07
2023-03-15T20:12:10.875Z,67.97
2023-03-15T20:14:39.793Z,67.40
2023-03-15T20:17:07.592Z,71.20
2023-03-15T20:19:35.933Z,72.10
2023-03-15T20:22:03.542Z,63.10
2023-03-15T20:24:32.681Z,71.03
2023-03-15T20:27:00.418Z,70.10
2023-03-15T20:29:28.061Z,73.07
2023-03-15T20:31:55.728Z,83.97
2023-03-15T20:34:23.440Z,74.10
2023-03-15T20:36:52.568Z,72.07
2023-03-15T20:39:23.932Z,75.40
2023-03-15T20:41:53.506Z,86.10
2023-03-15T20:44:21.490Z,79.63
2023-03-15T20:46:52.510Z,71.97
2023-03-15T20:49:20.220Z,73.00
2023-03-15T20:51:48.246Z,75.13
2023-03-15T20:54:15.898Z,72.37
2023-03-15T20:56:43.592Z,74.17
2023-03-15T20:59:13.441Z,67.10
2023-03-15T21:01:41.179Z,72.37
2023-03-15T21:04:08.795Z,70.53
2023-03-15T21:06:36.510Z,66.97
2023-03-15T21:09:05.000Z,74.00
2023-03-15T21:11:32.725Z,72.67
2023-03-15T21:14:00.882Z,64.27
2023-03-15T21:16:29.982Z,69.53
2023-03-15T21:18:57.694Z,63.73
2023-03-15T21:21:25.370Z,70.57
2023-03-15T21:23:54.178Z,67.10
2023-03-15T21:26:22.307Z,72.33
2023-03-15T21:28:50.570Z,73.07
2023-03-15T21:31:18.360Z,70.70
2023-03-15T21:33:49.218Z,64.63
2023-03-15T21:36:18.650Z,66.83
2023-03-15T21:38:46.315Z,70.87
2023-03-15T21:41:14.186Z,71.97
2023-03-15T21:43:41.899Z,68.20
2023-03-15T21:46:12.892Z,74.37
2023-03-15T21:48:41.837Z,75.97
2023-03-15T21:51:14.745Z,70.17
2023-03-15T21:53:42.871Z,77.17
2023-03-15T21:56:10.526Z,66.87
2023-03-15T21:58:38.220Z,71.70
2023-03-15T22:01:08.993Z,67.70
2023-03-15T22:03:37.525Z,69.23
2023-03-15T22:06:05.389Z,68.20
2023-03-15T22:08:34.792Z,71.00
2023-03-15T22:11:02.472Z,67.60
2023-03-15T22:13:30.297Z,77.37
2023-03-15T22:15:58.320Z,77.93
2023-03-15T22:18:28.456Z,73.43
2023-03-15T22:20:57.328Z,76.50
2023-03-15T22:23:25.199Z,73.87
2023-03-15T22:25:55.386Z,78.07
2023-03-15T22:28:25.016Z,70.77
2023-03-15T22:30:53.038Z,71.83
2023-03-15T22:33:22.466Z,70.80
2023-03-15T22:36:00.037Z,70.93
2023-03-15T22:38:27.821Z,69.70
2023-03-15T22:41:05.232Z,71.50
2023-03-15T22:43:32.972Z,68.87
2023-03-15T22:46:01.045Z,71.73
2023-03-15T22:48:29.361Z,66.67
2023-03-15T22:50:58.917Z,70.37
2023-03-15T22:53:26.847Z,69.60
2023-03-15T22:55:54.596Z,68.67
2023-03-15T22:58:24.257Z,71.63
2023-03-15T23:00:52.287Z,67.30
2023-03-15T23:03:20.669Z,68.43
2023-03-15T23:05:48.393Z,74.43
2023-03-15T23:08:16.281Z,71.53
2023-03-15T23:10:44.037Z,67.63
2023-03-15T23:13:12.528Z,68.67
2023-03-15T23:15:41.711Z,71.63
2023-03-15T23:18:09.489Z,61.97
2023-03-15T23:20:38.408Z,66.57
2023-03-15T23:23:07.322Z,68.37
2023-03-15T23:25:39.154Z,69.93
2023-03-15T23:28:07.752Z,67.53
2023-03-15T23:30:36.573Z,64.53
2023-03-15T23:33:07.769Z,70.37
2023-03-15T23:35:35.457Z,67.47
2023-03-15T23:38:03.149Z,69.13
2023-03-15T23:40:31.285Z,72.00
2023-03-15T23:42:59.593Z,67.77
2023-03-15T23:45:29.824Z,66.53
2023-03-15T23:47:57.752Z,68.27
2023-03-15T23:50:27.490Z,69.63
2023-03-15T23:52:56.831Z,63.50
2023-03-15T23:55:25.180Z,66.30
2023-03-15T23:57:53.068Z,68.33
